createdAt,value
2018-12-10T00:00:48.100Z,1.60
2018-12-10T00:03:14.978Z,1.47
2018-12-10T00:05:41.854Z,1.20
2018-12-10T00:08:08.740Z,1.40
2018-12-10T00:10:41.598Z,1.40
2018-12-10T00:13:04.509Z,2.50
2018-12-10T00:15:31.382Z,3.10
2018-12-10T00:17:58.245Z,1.63
2018-12-10T00:20:25.134Z,1.37
2018-12-10T00:22:52.006Z,1.50
2018-12-10T00:25:18.922Z,2.13
2018-12-10T00:27:45.775Z,1.97
2018-12-10T00:30:12.662Z,1.73
2018-12-10T00:32:39.527Z,2.00
2018-12-10T00:35:06.634Z,1.70
2018-12-10T00:37:33.510Z,1.40
2018-12-10T00:40:00.403Z,1.80
2018-12-10T00:42:27.357Z,1.20
2018-12-10T00:44:54.251Z,1.37
2018-12-10T00:47:21.115Z,1.90
2018-12-10T00:49:48.018Z,1.50
2018-12-10T00:52:14.878Z,1.57
2018-12-10T00:54:41.749Z,1.63
2018-12-10T00:57:08.638Z,1.50
2018-12-10T00:59:35.526Z,1.70
2018-12-10T01:02:02.516Z,2.23
2018-12-10T01:04:29.479Z,1.63
2018-12-10T01:06:56.435Z,1.80
2018-12-10T01:09:23.338Z,1.97
2018-12-10T01:11:50.225Z,1.60
2018-12-10T01:14:17.256Z,1.10
2018-12-10T01:16:44.242Z,1.60
2018-12-10T01:19:11.122Z,1.20
2018-12-10T01:21:38.007Z,1.40
2018-12-10T01:24:04.873Z,1.63
2018-12-10T01:26:31.778Z,1.60
2018-12-10T01:28:58.652Z,1.43
2018-12-10T01:31:25.768Z,1.10
2018-12-10T01:33:52.718Z,1.20
2018-12-10T01:36:19.582Z,1.73
2018-12-10T01:38:46.471Z,1.20
2018-12-10T01:41:13.333Z,1.10
2018-12-10T01:43:40.234Z,0.80
2018-12-10T01:46:07.122Z,1.10
2018-12-10T01:48:33.986Z,1.10
2018-12-10T01:51:00.891Z,1.40
2018-12-10T01:53:27.756Z,1.10
2018-12-10T01:55:54.671Z,1.10
2018-12-10T01:58:21.562Z,1.10
2018-12-10T02:00:48.435Z,1.37
2018-12-10T02:03:15.384Z,1.50
2018-12-10T02:05:42.302Z,1.20
2018-12-10T02:08:09.195Z,1.10
2018-12-10T02:10:36.091Z,1.07
2018-12-10T02:13:03.066Z,1.63
2018-12-10T02:15:29.941Z,2.87
2018-12-10T02:17:56.830Z,2.07
2018-12-10T02:20:23.708Z,1.20
2018-12-10T02:22:50.594Z,1.60
2018-12-10T02:25:17.511Z,1.37
2018-12-10T02:27:44.379Z,1.47
2018-12-10T02:30:11.272Z,1.80
2018-12-10T02:32:38.151Z,1.70
2018-12-10T02:35:05.100Z,1.50
2018-12-10T02:37:31.952Z,0.80
2018-12-10T02:39:58.790Z,1.30
2018-12-10T02:42:25.820Z,1.33
2018-12-10T02:44:52.660Z,1.17
2018-12-10T02:47:19.540Z,1.33
2018-12-10T02:49:46.448Z,1.10
2018-12-10T02:52:13.317Z,1.50
2018-12-10T02:54:40.180Z,1.40
2018-12-10T02:57:07.008Z,2.20
2018-12-10T02:59:33.847Z,1.57
2018-12-10T03:02:00.708Z,2.00
2018-12-10T03:04:27.636Z,1.50
2018-12-10T03:06:54.518Z,2.20
2018-12-10T03:09:21.445Z,1.83
2018-12-10T03:11:48.273Z,1.70
2018-12-10T03:14:15.200Z,1.60
2018-12-10T03:16:42.050Z,2.60
2018-12-10T03:19:08.980Z,1.93
2018-12-10T03:21:35.910Z,3.63
2018-12-10T03:24:02.877Z,1.87
2018-12-10T03:26:29.736Z,1.80
2018-12-10T03:28:56.608Z,1.67
2018-12-10T03:31:23.437Z,2.33
2018-12-10T03:33:50.411Z,2.00
2018-12-10T03:36:17.262Z,2.07
2018-12-10T03:38:44.217Z,2.53
2018-12-10T03:41:11.048Z,2.30
2018-12-10T03:43:37.969Z,1.77
2018-12-10T03:46:04.945Z,1.80
2018-12-10T03:48:31.852Z,1.60
2018-12-10T03:50:58.760Z,1.83
2018-12-10T03:53:25.686Z,1.67
2018-12-10T03:55:52.520Z,2.20
2018-12-10T03:58:19.390Z,2.23
2018-12-10T04:00:46.228Z,2.27
2018-12-10T04:03:13.107Z,2.13
2018-12-10T04:05:40.035Z,1.70
2018-12-10T04:08:06.874Z,2.00
2018-12-10T04:10:33.802Z,2.73
2018-12-10T04:13:00.687Z,2.40
2018-12-10T04:15:27.536Z,1.40
2018-12-10T04:17:54.359Z,1.77
2018-12-10T04:20:21.204Z,1.90
2018-12-10T04:22:48.121Z,2.00
2018-12-10T04:25:14.972Z,1.80
2018-12-10T04:27:41.824Z,1.87
2018-12-10T04:30:08.697Z,2.07
2018-12-10T04:32:35.536Z,2.50
2018-12-10T04:35:02.544Z,2.00
2018-12-10T04:37:29.461Z,1.80
2018-12-10T04:39:56.320Z,1.93
2018-12-10T04:42:23.168Z,1.83
2018-12-10T04:44:50.021Z,1.97
2018-12-10T04:47:16.871Z,1.73
2018-12-10T04:49:43.716Z,1.47
2018-12-10T04:52:10.563Z,2.07
2018-12-10T04:54:38.441Z,1.40
2018-12-10T04:57:05.510Z,1.60
2018-12-10T04:59:32.360Z,1.73
2018-12-10T05:01:59.203Z,1.90
2018-12-10T05:04:26.056Z,1.60
2018-12-10T05:06:52.887Z,1.33
2018-12-10T05:09:19.795Z,1.83
2018-12-10T05:11:46.629Z,1.53
2018-12-10T05:14:13.560Z,1.90
2018-12-10T05:16:40.400Z,1.70
2018-12-10T05:19:07.259Z,2.30
2018-12-10T05:21:34.113Z,1.60
2018-12-10T05:24:00.957Z,1.53
2018-12-10T05:26:27.799Z,1.47
2018-12-10T05:28:54.628Z,1.57
2018-12-10T05:31:21.504Z,1.50
2018-12-10T05:33:48.333Z,3.50
2018-12-10T05:36:15.311Z,1.60
2018-12-10T05:38:42.151Z,2.10
2018-12-10T05:41:08.988Z,1.57
2018-12-10T05:43:35.836Z,1.73
2018-12-10T05:46:02.715Z,1.60
2018-12-10T05:48:29.599Z,1.30
2018-12-10T05:50:56.432Z,1.10
2018-12-10T05:53:23.279Z,1.60
2018-12-10T05:55:50.112Z,1.20
2018-12-10T05:58:17.773Z,1.33
2018-12-10T06:00:44.863Z,2.33
2018-12-10T06:03:11.732Z,1.07
2018-12-10T06:05:38.568Z,1.60
2018-12-10T06:08:05.537Z,1.30
2018-12-10T06:10:32.396Z,1.40
2018-12-10T06:12:59.243Z,1.50
2018-12-10T06:15:26.116Z,0.90
2018-12-10T06:17:52.967Z,1.07
2018-12-10T06:20:19.837Z,1.00
2018-12-10T06:22:46.688Z,1.90
2018-12-10T06:25:13.561Z,1.20
2018-12-10T06:27:40.529Z,1.33
2018-12-10T06:30:07.511Z,1.80
2018-12-10T06:32:34.384Z,1.60
2018-12-10T06:35:01.224Z,1.60
2018-12-10T06:37:28.093Z,1.80
2018-12-10T06:39:54.948Z,1.60
2018-12-10T06:42:21.796Z,2.03
2018-12-10T06:44:48.643Z,1.37
2018-12-10T06:47:15.547Z,1.60
2018-12-10T06:49:42.438Z,2.63
2018-12-10T06:52:09.276Z,2.07
2018-12-10T06:54:36.162Z,2.40
2018-12-10T06:57:03.068Z,3.77
2018-12-10T06:59:29.901Z,1.73
2018-12-10T07:01:56.806Z,1.93
2018-12-10T07:04:23.776Z,2.40
2018-12-10T07:06:50.627Z,2.27
2018-12-10T07:09:17.511Z,2.67
2018-12-10T07:11:44.336Z,2.33
2018-12-10T07:14:11.231Z,2.20
2018-12-10T07:16:38.083Z,2.20
2018-12-10T07:19:05.110Z,2.30
2018-12-10T07:21:32.077Z,2.10
2018-12-10T07:23:58.923Z,2.10
2018-12-10T07:26:25.804Z,1.60
2018-12-10T07:28:52.643Z,2.00
2018-12-10T07:31:19.504Z,2.50
2018-12-10T07:33:46.348Z,2.70
2018-12-10T07:36:13.188Z,2.63
2018-12-10T07:38:40.076Z,2.87
2018-12-10T07:41:06.944Z,3.43
2018-12-10T07:43:33.800Z,2.50
2018-12-10T07:46:00.639Z,2.60
2018-12-10T07:48:27.474Z,2.37
2018-12-10T07:50:54.320Z,2.30
2018-12-10T07:53:21.261Z,2.43
2018-12-10T07:55:48.115Z,2.77
2018-12-10T07:58:14.939Z,2.60
2018-12-10T08:00:41.810Z,1.90
2018-12-10T08:03:08.639Z,1.50
2018-12-10T08:05:35.552Z,2.00
2018-12-10T08:08:02.435Z,2.20
2018-12-10T08:10:29.304Z,2.30
2018-12-10T08:12:56.571Z,1.93
2018-12-10T08:15:23.804Z,1.90
2018-12-10T08:17:50.660Z,2.20
2018-12-10T08:20:17.516Z,2.23
2018-12-10T08:22:44.367Z,2.63
2018-12-10T08:25:11.225Z,2.93
2018-12-10T08:27:38.076Z,2.23
2018-12-10T08:30:05.299Z,4.03
2018-12-10T08:32:32.164Z,2.73
2018-12-10T08:34:59.100Z,2.27
2018-12-10T08:37:25.971Z,2.90
2018-12-10T08:39:52.823Z,3.27
2018-12-10T08:42:19.666Z,2.97
2018-12-10T08:44:46.580Z,3.33
2018-12-10T08:47:16.147Z,4.70
2018-12-10T08:49:42.280Z,2.53
2018-12-10T08:52:09.144Z,3.03
2018-12-10T08:54:35.989Z,2.43
2018-12-10T08:57:02.914Z,2.60
2018-12-10T08:59:29.752Z,2.30
2018-12-10T09:01:56.644Z,2.70
2018-12-10T09:04:23.497Z,2.33
2018-12-10T09:06:50.411Z,2.60
2018-12-10T09:09:17.261Z,2.60
2018-12-10T09:11:44.152Z,3.63
2018-12-10T09:14:11.028Z,2.93
2018-12-10T09:16:37.896Z,3.20
2018-12-10T09:19:04.724Z,3.10
2018-12-10T09:21:31.643Z,3.00
2018-12-10T09:23:58.544Z,3.10
2018-12-10T09:26:25.399Z,3.07
2018-12-10T09:28:52.329Z,3.27
2018-12-10T09:31:19.179Z,3.37
2018-12-10T09:33:46.021Z,3.00
2018-12-10T09:36:12.852Z,3.23
2018-12-10T09:38:39.706Z,2.73
2018-12-10T09:41:06.536Z,2.47
2018-12-10T09:43:33.399Z,3.23
2018-12-10T09:46:00.233Z,3.27
2018-12-10T09:48:27.250Z,3.20
2018-12-10T09:50:54.073Z,3.70
2018-12-10T09:53:20.993Z,3.20
2018-12-10T09:55:48.321Z,3.00
2018-12-10T09:58:15.132Z,2.93
2018-12-10T10:00:41.985Z,2.80
2018-12-10T10:03:08.824Z,2.07
2018-12-10T10:05:35.742Z,2.43
2018-12-10T10:08:02.609Z,2.47
2018-12-10T10:10:29.540Z,2.80
2018-12-10T10:12:56.371Z,2.00
2018-12-10T10:15:23.245Z,2.23
2018-12-10T10:17:50.103Z,1.90
2018-12-10T10:20:17.171Z,2.50
2018-12-10T10:22:44.026Z,2.07
2018-12-10T10:25:10.951Z,1.70
2018-12-10T10:27:37.796Z,1.90
2018-12-10T10:30:04.706Z,2.00
2018-12-10T10:32:31.556Z,2.17
2018-12-10T10:34:58.395Z,2.37
2018-12-10T10:37:25.263Z,2.40
2018-12-10T10:39:52.105Z,2.00
2018-12-10T10:42:18.969Z,1.60
2018-12-10T10:44:45.803Z,1.40
2018-12-10T10:47:12.667Z,1.53
2018-12-10T10:49:39.513Z,1.50
2018-12-10T10:52:06.374Z,1.47
2018-12-10T10:54:33.372Z,1.97
2018-12-10T10:57:00.241Z,2.20
2018-12-10T10:59:27.531Z,3.03
2018-12-10T11:01:54.358Z,2.03
2018-12-10T11:04:21.319Z,2.17
2018-12-10T11:06:48.493Z,1.53
2018-12-10T11:09:15.763Z,1.90
2018-12-10T11:11:42.725Z,1.73
2018-12-10T11:14:09.628Z,2.30
2018-12-10T11:16:36.539Z,3.00
2018-12-10T11:19:03.470Z,2.03
2018-12-10T11:21:30.372Z,1.20
2018-12-10T11:23:57.216Z,1.63
2018-12-10T11:26:24.061Z,1.47
2018-12-10T11:28:51.074Z,2.10
2018-12-10T11:31:18.007Z,1.47
2018-12-10T11:33:44.836Z,1.00
2018-12-10T11:36:11.699Z,1.53
2018-12-10T11:38:38.575Z,1.40
2018-12-10T11:41:05.545Z,2.47
2018-12-10T11:43:32.421Z,1.10
2018-12-10T11:45:59.265Z,2.23
2018-12-10T11:48:26.084Z,1.30
2018-12-10T11:50:52.928Z,1.53
2018-12-10T11:53:19.762Z,2.00
2018-12-10T11:55:46.645Z,1.30
2018-12-10T11:58:13.504Z,1.60
2018-12-10T12:00:40.397Z,1.90
2018-12-10T12:03:07.249Z,1.50
2018-12-10T12:05:34.092Z,2.10
2018-12-10T12:08:00.969Z,1.80
2018-12-10T12:10:27.908Z,1.47
2018-12-10T12:12:54.788Z,2.23
2018-12-10T12:15:21.679Z,2.03
2018-12-10T12:17:48.517Z,2.33
2018-12-10T12:20:15.435Z,2.00
2018-12-10T12:22:42.325Z,2.40
2018-12-10T12:25:09.255Z,3.33
2018-12-10T12:27:36.156Z,2.53
2018-12-10T12:30:04.583Z,2.40
2018-12-10T12:32:31.424Z,2.60
2018-12-10T12:34:58.269Z,2.00
2018-12-10T12:37:25.229Z,1.90
2018-12-10T12:39:52.109Z,2.23
2018-12-10T12:42:18.943Z,2.37
2018-12-10T12:44:45.791Z,2.30
2018-12-10T12:47:12.732Z,2.23
2018-12-10T12:49:39.552Z,1.80
2018-12-10T12:52:06.408Z,2.03
2018-12-10T12:54:33.263Z,2.13
2018-12-10T12:57:00.097Z,1.90
2018-12-10T12:59:27.133Z,1.60
2018-12-10T13:01:54.057Z,1.60
2018-12-10T13:04:20.901Z,1.50
2018-12-10T13:06:47.951Z,1.80
2018-12-10T13:09:21.782Z,1.83
2018-12-10T13:11:43.683Z,1.80
2018-12-10T13:14:10.540Z,1.20
2018-12-10T13:16:37.441Z,1.30
2018-12-10T13:19:04.392Z,1.43
2018-12-10T13:21:31.236Z,1.57
2018-12-10T13:23:58.069Z,1.43
2018-12-10T13:26:24.912Z,1.70
2018-12-10T13:28:52.646Z,2.17
2018-12-10T13:31:19.595Z,2.03
2018-12-10T13:33:46.452Z,1.93
2018-12-10T13:36:13.309Z,1.63
2018-12-10T13:38:40.154Z,1.53
2018-12-10T13:41:07.072Z,1.30
2018-12-10T13:43:33.908Z,1.53
2018-12-10T13:46:00.836Z,1.50
2018-12-10T13:48:27.715Z,1.43
2018-12-10T13:50:54.584Z,1.70
2018-12-10T13:53:21.420Z,1.60
2018-12-10T13:55:48.265Z,1.57
2018-12-10T13:58:15.172Z,1.80
2018-12-10T14:00:42.103Z,2.17
2018-12-10T14:03:09.016Z,2.00
2018-12-10T14:05:35.891Z,2.10
2018-12-10T14:08:02.812Z,2.40
2018-12-10T14:10:29.662Z,2.27
2018-12-10T14:12:56.492Z,2.20
2018-12-10T14:15:23.450Z,1.90
2018-12-10T14:17:50.301Z,2.67
2018-12-10T14:20:17.222Z,2.63
2018-12-10T14:22:44.096Z,2.37
2018-12-10T14:25:25.845Z,2.80
2018-12-10T14:27:52.755Z,2.70
2018-12-10T14:30:19.784Z,3.10
2018-12-10T14:32:46.699Z,3.50
2018-12-10T14:35:13.603Z,2.87
2018-12-10T14:37:40.505Z,3.60
2018-12-10T14:40:07.411Z,2.50
2018-12-10T14:42:42.088Z,3.10
2018-12-10T14:45:08.937Z,3.50
2018-12-10T14:47:35.812Z,3.83
2018-12-10T14:50:02.996Z,3.47
2018-12-10T14:52:29.855Z,3.80
2018-12-10T14:54:56.708Z,3.23
2018-12-10T14:57:23.552Z,3.40
2018-12-10T14:59:50.403Z,3.00
2018-12-10T15:02:17.272Z,3.57
2018-12-10T15:04:44.134Z,3.83
2018-12-10T15:07:11.119Z,2.50
2018-12-10T15:09:37.979Z,2.73
2018-12-10T15:12:04.852Z,2.33
2018-12-10T15:14:31.723Z,3.13
2018-12-10T15:16:58.551Z,3.60
2018-12-10T15:19:25.409Z,2.77
2018-12-10T15:21:52.252Z,2.63
2018-12-10T15:24:19.091Z,3.17
2018-12-10T15:26:45.937Z,3.00
2018-12-10T15:29:12.804Z,2.57
2018-12-10T15:31:39.768Z,2.63
2018-12-10T15:34:06.721Z,2.63
2018-12-10T15:36:33.563Z,2.23
2018-12-10T15:39:00.396Z,2.10
2018-12-10T15:41:27.299Z,2.37
2018-12-10T15:43:54.215Z,1.90
2018-12-10T15:46:21.057Z,1.60
2018-12-10T15:48:47.938Z,1.80
2018-12-10T15:51:14.852Z,1.07
2018-12-10T15:53:41.827Z,1.30
2018-12-10T15:56:08.832Z,1.30
2018-12-10T15:58:35.735Z,1.03
2018-12-10T16:01:02.631Z,1.00
2018-12-10T16:03:29.460Z,1.60
2018-12-10T16:05:56.299Z,1.27
2018-12-10T16:08:23.235Z,1.40
2018-12-10T16:10:50.099Z,1.40
2018-12-10T16:13:16.976Z,1.27
2018-12-10T16:15:43.827Z,1.47
2018-12-10T16:18:10.678Z,1.63
2018-12-10T16:20:37.532Z,1.50
2018-12-10T16:23:04.384Z,1.57
2018-12-10T16:25:31.248Z,1.63
2018-12-10T16:27:58.197Z,2.10
2018-12-10T16:30:25.028Z,2.37
2018-12-10T16:32:51.883Z,2.70
2018-12-10T16:35:18.727Z,2.33
2018-12-10T16:37:45.559Z,2.40
2018-12-10T16:40:12.408Z,2.63
2018-12-10T16:42:39.253Z,2.60
2018-12-10T16:45:07.064Z,3.10
2018-12-10T16:47:33.931Z,2.63
2018-12-10T16:50:00.779Z,3.20
2018-12-10T16:52:27.751Z,3.50
2018-12-10T16:54:54.613Z,3.63
2018-12-10T16:57:21.446Z,3.67
2018-12-10T16:59:48.301Z,2.90
2018-12-10T17:02:15.177Z,2.90
2018-12-10T17:04:42.031Z,3.73
2018-12-10T17:07:08.904Z,3.00
2018-12-10T17:09:35.795Z,3.57
2018-12-10T17:12:02.684Z,2.67
2018-12-10T17:14:29.524Z,2.97
2018-12-10T17:16:56.391Z,3.40
2018-12-10T17:19:23.267Z,2.80
2018-12-10T17:21:50.102Z,2.93
2018-12-10T17:24:16.989Z,3.03
2018-12-10T17:26:43.825Z,3.30
2018-12-10T17:29:10.675Z,3.60
2018-12-10T17:31:37.560Z,3.40
2018-12-10T17:34:04.397Z,3.20
2018-12-10T17:36:31.274Z,3.30
2018-12-10T17:38:58.207Z,3.07
2018-12-10T17:41:25.127Z,3.00
2018-12-10T17:43:52.040Z,3.13
2018-12-10T17:46:18.901Z,4.47
2018-12-10T17:48:45.741Z,3.17
2018-12-10T17:51:12.600Z,3.10
2018-12-10T17:53:39.435Z,3.30
2018-12-10T17:56:06.280Z,3.10
2018-12-10T17:58:33.205Z,3.47
2018-12-10T18:01:00.061Z,3.87
2018-12-10T18:03:26.989Z,3.53
2018-12-10T18:05:53.920Z,3.60
2018-12-10T18:08:21.122Z,3.20
2018-12-10T18:10:48.032Z,3.50
2018-12-10T18:13:14.900Z,3.20
2018-12-10T18:15:41.746Z,3.30
2018-12-10T18:18:08.672Z,3.10
2018-12-10T18:20:35.513Z,2.83
2018-12-10T18:23:02.395Z,3.53
2018-12-10T18:25:29.282Z,3.17
2018-12-10T18:27:56.147Z,3.10
2018-12-10T18:30:23.144Z,3.20
2018-12-10T18:32:49.972Z,3.20
2018-12-10T18:35:16.857Z,2.50
2018-12-10T18:37:43.720Z,3.50
2018-12-10T18:40:10.655Z,2.80
2018-12-10T18:42:37.474Z,2.87
2018-12-10T18:45:08.371Z,4.17
2018-12-10T18:47:35.254Z,3.20
2018-12-10T18:50:02.199Z,2.93
2018-12-10T18:52:29.081Z,3.00
2018-12-10T18:54:55.927Z,2.60
2018-12-10T18:57:22.879Z,2.87
2018-12-10T18:59:49.703Z,2.57
2018-12-10T19:02:16.695Z,3.13
2018-12-10T19:04:43.531Z,2.93
2018-12-10T19:07:10.412Z,3.33
2018-12-10T19:09:37.305Z,2.80
2018-12-10T19:12:04.188Z,2.47
2018-12-10T19:14:31.062Z,2.63
2018-12-10T19:16:57.921Z,2.97
2018-12-10T19:19:24.808Z,2.90
2018-12-10T19:21:51.657Z,2.43
2018-12-10T19:24:18.536Z,2.53
2018-12-10T19:26:45.400Z,2.77
2018-12-10T19:29:12.441Z,2.90
2018-12-10T19:31:39.455Z,2.90
2018-12-10T19:34:06.281Z,3.03
2018-12-10T19:36:33.128Z,2.50
2018-12-10T19:38:59.970Z,2.90
2018-12-10T19:41:26.888Z,3.60
2018-12-10T19:43:53.723Z,3.00
2018-12-10T19:46:20.588Z,2.90
2018-12-10T19:48:47.454Z,3.63
2018-12-10T19:51:14.334Z,3.13
2018-12-10T19:53:41.236Z,3.90
2018-12-10T19:56:08.269Z,2.70
2018-12-10T19:58:35.124Z,2.70
2018-12-10T20:01:02.065Z,3.67
2018-12-10T20:03:28.957Z,3.20
2018-12-10T20:05:55.799Z,3.37
2018-12-10T20:08:22.749Z,3.90
2018-12-10T20:10:49.609Z,3.07
2018-12-10T20:13:16.467Z,3.03
2018-12-10T20:15:43.357Z,2.90
2018-12-10T20:18:10.272Z,2.80
2018-12-10T20:20:37.135Z,3.10
2018-12-10T20:23:04.068Z,2.73
2018-12-10T20:25:30.934Z,3.10
2018-12-10T20:27:57.782Z,3.00
2018-12-10T20:30:24.685Z,2.90
2018-12-10T20:32:51.651Z,3.27
2018-12-10T20:35:18.608Z,3.53
2018-12-10T20:37:45.581Z,3.30
2018-12-10T20:40:12.537Z,2.90
2018-12-10T20:42:39.407Z,3.23
2018-12-10T20:45:07.258Z,3.33
2018-12-10T20:47:34.122Z,2.93
2018-12-10T20:50:01.003Z,3.37
2018-12-10T20:52:27.873Z,3.00
2018-12-10T20:54:54.775Z,3.20
2018-12-10T20:57:21.684Z,3.50
2018-12-10T20:59:48.520Z,3.10
2018-12-10T21:02:15.428Z,3.00
2018-12-10T21:04:42.288Z,2.87
2018-12-10T21:07:09.172Z,3.57
2018-12-10T21:09:36.058Z,3.10
2018-12-10T21:12:02.975Z,3.63
2018-12-10T21:14:29.831Z,2.83
2018-12-10T21:16:56.687Z,2.60
2018-12-10T21:19:23.609Z,4.00
2018-12-10T21:21:50.499Z,3.50
2018-12-10T21:24:17.464Z,3.30
2018-12-10T21:26:44.299Z,2.60
2018-12-10T21:29:11.216Z,2.60
2018-12-10T21:31:38.073Z,2.80
2018-12-10T21:34:04.955Z,3.67
2018-12-10T21:36:31.808Z,2.60
2018-12-10T21:38:58.706Z,2.90
2018-12-10T21:41:25.581Z,2.40
2018-12-10T21:43:52.425Z,2.07
2018-12-10T21:46:19.292Z,2.60
2018-12-10T21:48:46.257Z,2.97
2018-12-10T21:51:13.224Z,2.80
2018-12-10T21:53:40.103Z,2.17
2018-12-10T21:56:06.965Z,2.80
2018-12-10T21:58:33.805Z,2.80
2018-12-10T22:01:00.660Z,2.83
2018-12-10T22:03:27.499Z,2.93
2018-12-10T22:05:54.672Z,3.00
2018-12-10T22:08:21.515Z,2.30
2018-12-10T22:10:48.368Z,2.40
2018-12-10T22:13:15.249Z,2.70
2018-12-10T22:15:42.527Z,2.27
2018-12-10T22:18:09.359Z,2.50
2018-12-10T22:20:36.205Z,2.27
2018-12-10T22:23:03.099Z,2.80
2018-12-10T22:25:29.957Z,2.30
2018-12-10T22:27:56.799Z,2.47
2018-12-10T22:30:23.639Z,2.10
2018-12-10T22:32:50.500Z,2.27
2018-12-10T22:35:17.344Z,2.43
2018-12-10T22:37:44.205Z,2.63
2018-12-10T22:40:11.043Z,2.90
2018-12-10T22:42:37.933Z,2.40
2018-12-10T22:45:05.941Z,2.40
2018-12-10T22:47:32.788Z,2.90
2018-12-10T22:49:59.660Z,2.30
2018-12-10T22:52:26.483Z,2.80
2018-12-10T22:54:53.331Z,1.83
2018-12-10T22:57:20.259Z,2.30
2018-12-10T22:59:47.104Z,2.40
2018-12-10T23:02:13.987Z,2.60
2018-12-10T23:04:40.835Z,2.23
2018-12-10T23:07:08.342Z,2.10
2018-12-10T23:09:35.311Z,2.23
2018-12-10T23:12:02.197Z,2.30
2018-12-10T23:14:29.056Z,1.70
2018-12-10T23:16:56.247Z,1.97
2018-12-10T23:19:23.093Z,2.70
2018-12-10T23:21:50.029Z,2.17
2018-12-10T23:24:16.876Z,2.17
2018-12-10T23:26:43.732Z,2.27
2018-12-10T23:29:10.591Z,1.90
2018-12-10T23:31:37.416Z,1.70
2018-12-10T23:34:04.344Z,1.83
2018-12-10T23:36:31.316Z,2.00
2018-12-10T23:38:58.178Z,2.27
2018-12-10T23:41:25.084Z,1.90
2018-12-10T23:43:51.932Z,2.50
2018-12-10T23:46:18.884Z,1.67
2018-12-10T23:48:45.780Z,1.70
2018-12-10T23:51:12.664Z,2.30
2018-12-10T23:53:39.524Z,2.20
2018-12-10T23:56:06.477Z,2.50
2018-12-10T23:58:33.316Z,2.10
